createdAt,value
2018-07-22T00:00:37.691Z,68.55
2018-07-22T00:01:37.597Z,69.07
2018-07-22T00:02:37.509Z,68.87
2018-07-22T00:03:37.416Z,69.32
2018-07-22T00:04:37.313Z,69.64
2018-07-22T00:05:37.224Z,69.55
2018-07-22T00:06:37.134Z,69.42
2018-07-22T00:07:37.043Z,69.42
2018-07-22T00:08:36.951Z,69.80
2018-07-22T00:09:36.847Z,70.48
2018-07-22T00:10:36.761Z,72.12
2018-07-22T00:11:36.667Z,72.12
2018-07-22T00:12:36.575Z,70.67
2018-07-22T00:13:36.484Z,72.02
2018-07-22T00:14:36.387Z,73.66
2018-07-22T00:15:36.292Z,74.05
2018-07-22T00:16:36.200Z,75.20
2018-07-22T00:17:36.101Z,76.17
2018-07-22T00:18:36.009Z,75.01
2018-07-22T00:19:35.915Z,75.10
2018-07-22T00:20:35.825Z,75.01
2018-07-22T00:21:35.731Z,74.01
2018-07-22T00:22:35.628Z,74.10
2018-07-22T00:23:35.838Z,73.72
2018-07-22T00:24:35.447Z,74.01
2018-07-22T00:25:35.358Z,74.10
2018-07-22T00:26:35.267Z,74.58
2018-07-22T00:27:35.178Z,74.20
2018-07-22T00:28:35.074Z,74.40
2018-07-22T00:29:34.981Z,76.71
2018-07-22T00:30:34.890Z,76.80
2018-07-22T00:31:34.786Z,77.09
2018-07-22T00:32:34.696Z,78.73
2018-07-22T00:33:34.606Z,80.85
2018-07-22T00:34:34.514Z,82.87
2018-07-22T00:35:34.423Z,84.90
2018-07-22T00:36:34.320Z,86.44
2018-07-22T00:37:34.231Z,87.12
2018-07-22T00:38:34.141Z,89.04
2018-07-22T00:39:34.049Z,91.64
2018-07-22T00:40:33.958Z,91.50
2018-07-22T00:41:33.865Z,92.08
2018-07-22T00:42:33.762Z,90.16
2018-07-22T00:43:33.973Z,90.25
2018-07-22T00:44:33.581Z,90.16
2018-07-22T00:45:33.495Z,93.62
2018-07-22T00:46:33.389Z,93.62
2018-07-22T00:47:33.299Z,94.78
2018-07-22T00:48:33.208Z,96.61
2018-07-22T00:49:33.115Z,98.05
2018-07-22T00:50:33.025Z,98.05
2018-07-22T00:51:32.922Z,97.91
2018-07-22T00:52:32.831Z,96.89
2018-07-22T00:53:32.739Z,97.04
2018-07-22T00:54:32.661Z,97.96
2018-07-22T00:55:32.557Z,98.10
2018-07-22T00:56:32.454Z,97.81
2018-07-22T00:57:32.364Z,98.39
2018-07-22T00:58:32.274Z,98.29
2018-07-22T00:59:32.182Z,97.81
2018-07-22T01:00:32.084Z,98.58
2018-07-22T01:01:31.990Z,98.39
2018-07-22T01:02:31.899Z,98.77
2018-07-22T01:03:31.810Z,98.58
2018-07-22T01:04:31.717Z,98.97
2018-07-22T01:05:31.612Z,99.99
2018-07-22T01:06:31.520Z,99.54
2018-07-22T01:07:31.432Z,99.99
2018-07-22T01:08:31.339Z,99.99
2018-07-22T01:09:31.251Z,99.99
2018-07-22T01:10:31.152Z,99.99
2018-07-22T01:11:31.056Z,99.99
2018-07-22T01:12:30.965Z,99.99
2018-07-22T01:13:30.873Z,99.99
2018-07-22T01:14:30.781Z,99.99
2018-07-22T01:15:30.679Z,99.99
2018-07-22T01:16:30.588Z,99.99
2018-07-22T01:17:30.498Z,99.99
2018-07-22T01:18:30.408Z,99.99
2018-07-22T01:19:30.304Z,99.99
2018-07-22T01:20:30.213Z,99.99
2018-07-22T01:21:30.122Z,99.99
2018-07-22T01:22:30.031Z,99.99
2018-07-22T01:23:30.192Z,99.99
2018-07-22T01:24:29.838Z,99.99
2018-07-22T01:25:29.744Z,99.99
2018-07-22T01:26:29.654Z,99.99
2018-07-22T01:27:29.562Z,99.99
2018-07-22T01:28:29.461Z,99.99
2018-07-22T01:29:29.372Z,99.99
2018-07-22T01:30:29.282Z,99.99
2018-07-22T01:31:29.189Z,99.99
2018-07-22T01:32:29.100Z,99.99
2018-07-22T01:33:28.993Z,99.99
2018-07-22T01:34:28.903Z,99.99
2018-07-22T01:35:28.811Z,99.99
2018-07-22T01:36:28.720Z,99.99
2018-07-22T01:37:28.629Z,99.99
2018-07-22T01:38:28.526Z,99.99
2018-07-22T01:39:28.436Z,99.99
2018-07-22T01:40:28.345Z,98.68
2018-07-22T01:41:28.260Z,99.64
2018-07-22T01:42:28.152Z,98.29
2018-07-22T01:43:28.067Z,98.19
2018-07-22T01:44:27.974Z,97.42
2018-07-22T01:45:27.877Z,96.17
2018-07-22T01:46:27.776Z,96.61
2018-07-22T01:47:27.685Z,96.61
2018-07-22T01:48:27.593Z,95.17
2018-07-22T01:49:27.505Z,93.73
2018-07-22T01:50:27.406Z,93.44
2018-07-22T01:51:27.314Z,95.07
2018-07-22T01:52:27.220Z,94.30
2018-07-22T01:53:27.143Z,92.67
2018-07-22T01:54:27.026Z,92.09
2018-07-22T01:55:26.935Z,91.61
2018-07-22T01:56:26.844Z,92.52
2018-07-22T01:57:26.752Z,92.14
2018-07-22T01:58:26.649Z,92.05
2018-07-22T01:59:26.557Z,90.41
2018-07-22T02:00:26.467Z,89.93
2018-07-22T02:01:26.377Z,89.45
2018-07-22T02:02:26.275Z,87.15
2018-07-22T02:03:26.183Z,84.84
2018-07-22T02:04:26.092Z,84.31
2018-07-22T02:05:26.000Z,83.54
2018-07-22T02:06:25.897Z,83.16
2018-07-22T02:07:25.811Z,82.59
2018-07-22T02:08:25.716Z,81.92
2018-07-22T02:09:25.614Z,82.01
2018-07-22T02:10:25.522Z,79.80
2018-07-22T02:11:25.437Z,75.48
2018-07-22T02:12:25.345Z,76.64
2018-07-22T02:13:25.248Z,76.44
2018-07-22T02:14:25.145Z,77.69
2018-07-22T02:15:25.054Z,80.38
2018-07-22T02:16:24.951Z,80.57
2018-07-22T02:17:24.862Z,80.86
2018-07-22T02:18:25.083Z,82.97
2018-07-22T02:19:24.669Z,83.07
2018-07-22T02:20:24.578Z,79.90
2018-07-22T02:21:24.484Z,79.32
2018-07-22T02:22:24.393Z,78.94
2018-07-22T02:23:24.290Z,77.78
2018-07-22T02:24:24.198Z,76.92
2018-07-22T02:25:24.109Z,76.25
2018-07-22T02:26:24.007Z,77.11
2018-07-22T02:27:23.914Z,78.45
2018-07-22T02:28:24.073Z,77.88
2018-07-22T02:29:23.737Z,77.11
2018-07-22T02:30:23.634Z,78.75
2018-07-22T02:31:23.542Z,79.52
2018-07-22T02:32:23.450Z,80.09
2018-07-22T02:33:23.344Z,81.53
2018-07-22T02:34:23.254Z,76.64
2018-07-22T02:35:23.176Z,76.34
2018-07-22T02:36:23.059Z,72.12
2018-07-22T02:37:22.970Z,72.02
2018-07-22T02:38:22.881Z,72.22
2018-07-22T02:39:22.778Z,74.33
2018-07-22T02:40:22.686Z,72.02
2018-07-22T02:41:22.594Z,76.73
2018-07-22T02:42:22.504Z,76.25
2018-07-22T02:43:22.401Z,73.46
2018-07-22T02:44:22.310Z,72.31
2018-07-22T02:45:22.218Z,68.66
2018-07-22T02:46:22.114Z,68.76
2018-07-22T02:47:22.036Z,68.08
2018-07-22T02:48:22.183Z,67.99
2018-07-22T02:49:21.832Z,64.92
2018-07-22T02:50:21.739Z,64.34
2018-07-22T02:51:21.657Z,64.72
2018-07-22T02:52:21.546Z,64.25
2018-07-22T02:53:21.465Z,62.68
2018-07-22T02:54:21.363Z,64.34
2018-07-22T02:55:21.260Z,63.16
2018-07-22T02:56:21.168Z,64.02
2018-07-22T02:57:21.078Z,64.12
2018-07-22T02:58:20.975Z,61.24
2018-07-22T02:59:20.893Z,63.35
2018-07-22T03:00:20.792Z,63.45
2018-07-22T03:01:20.692Z,63.54
2018-07-22T03:02:20.600Z,63.92
2018-07-22T03:03:20.564Z,61.91
2018-07-22T03:04:20.408Z,58.36
2018-07-22T03:05:20.312Z,56.82
2018-07-22T03:06:20.223Z,56.63
2018-07-22T03:07:20.131Z,55.77
2018-07-22T03:08:20.028Z,55.47
2018-07-22T03:09:19.940Z,57.11
2018-07-22T03:10:19.849Z,56.73
2018-07-22T03:11:19.747Z,59.80
2018-07-22T03:12:19.655Z,58.74
2018-07-22T03:13:19.565Z,59.41
2018-07-22T03:14:19.478Z,59.96
2018-07-22T03:15:19.370Z,59.89
2018-07-22T03:16:19.268Z,63.25
2018-07-22T03:17:19.175Z,63.16
2018-07-22T03:18:19.083Z,62.87
2018-07-22T03:19:19.012Z,63.83
2018-07-22T03:20:18.888Z,60.38
2018-07-22T03:21:18.801Z,57.40
2018-07-22T03:22:18.708Z,58.84
2018-07-22T03:23:18.606Z,58.45
2018-07-22T03:24:18.516Z,57.50
2018-07-22T03:25:18.428Z,55.96
2018-07-22T03:26:18.318Z,54.04
2018-07-22T03:27:18.229Z,55.38
2018-07-22T03:28:18.126Z,55.77
2018-07-22T03:29:18.037Z,58.07
2018-07-22T03:30:17.944Z,58.07
2018-07-22T03:31:17.840Z,60.75
2018-07-22T03:32:17.762Z,62.19
2018-07-22T03:33:17.661Z,62.48
2018-07-22T03:34:17.571Z,63.64
2018-07-22T03:35:17.467Z,65.27
2018-07-22T03:36:17.375Z,67.86
2018-07-22T03:37:17.282Z,66.42
2018-07-22T03:38:17.178Z,65.08
2018-07-22T03:39:17.089Z,62.10
2018-07-22T03:40:16.986Z,62.96
2018-07-22T03:41:16.898Z,63.92
2018-07-22T03:42:16.806Z,62.01
2018-07-22T03:43:16.703Z,59.32
2018-07-22T03:44:16.612Z,62.58
2018-07-22T03:45:16.522Z,61.05
2018-07-22T03:46:16.435Z,59.25
2018-07-22T03:47:16.382Z,59.34
2018-07-22T03:48:16.236Z,61.55
2018-07-22T03:49:16.149Z,61.94
2018-07-22T03:50:16.042Z,67.99
2018-07-22T03:51:15.949Z,71.16
2018-07-22T03:52:15.858Z,69.91
2018-07-22T03:53:15.757Z,68.66
2018-07-22T03:54:15.667Z,68.66
2018-07-22T03:55:15.612Z,67.80
2018-07-22T03:56:15.471Z,63.57
2018-07-22T03:57:15.380Z,62.52
2018-07-22T03:58:15.288Z,61.94
2018-07-22T03:59:15.185Z,63.96
2018-07-22T04:00:15.095Z,64.92
2018-07-22T04:01:15.003Z,67.41
2018-07-22T04:02:14.901Z,67.13
2018-07-22T04:03:14.810Z,67.45
2018-07-22T04:04:14.718Z,69.08
2018-07-22T04:05:14.618Z,68.31
2018-07-22T04:06:14.528Z,65.72
2018-07-22T04:07:14.449Z,67.25
2018-07-22T04:08:14.333Z,68.31
2018-07-22T04:09:14.244Z,68.89
2018-07-22T04:10:14.148Z,69.95
2018-07-22T04:11:14.058Z,70.04
2018-07-22T04:12:13.956Z,69.37
2018-07-22T04:13:13.865Z,69.75
2018-07-22T04:14:13.776Z,69.95
2018-07-22T04:15:13.677Z,69.08
2018-07-22T04:16:13.582Z,68.63
2018-07-22T04:17:13.489Z,68.02
2018-07-22T04:18:13.397Z,67.68
2018-07-22T04:19:13.293Z,67.38
2018-07-22T04:20:13.204Z,68.35
2018-07-22T04:21:13.114Z,69.60
2018-07-22T04:22:13.012Z,69.89
2018-07-22T04:23:12.920Z,70.84
2018-07-22T04:24:12.831Z,71.04
2018-07-22T04:25:12.737Z,70.84
2018-07-22T04:26:12.634Z,70.94
2018-07-22T04:27:12.543Z,71.04
2018-07-22T04:28:12.452Z,71.33
2018-07-22T04:29:12.351Z,71.14
2018-07-22T04:30:12.260Z,71.42
2018-07-22T04:31:12.169Z,72.29
2018-07-22T04:32:12.079Z,69.69
2018-07-22T04:33:11.975Z,70.01
2018-07-22T04:34:11.883Z,68.76
2018-07-22T04:35:11.792Z,69.63
2018-07-22T04:36:11.690Z,73.86
2018-07-22T04:37:11.598Z,74.54
2018-07-22T04:38:11.507Z,76.46
2018-07-22T04:39:11.415Z,77.13
2018-07-22T04:40:11.313Z,79.44
2018-07-22T04:41:11.222Z,78.09
2018-07-22T04:42:11.133Z,77.13
2018-07-22T04:43:11.041Z,76.88
2018-07-22T04:44:10.938Z,76.40
2018-07-22T04:45:10.846Z,79.00
2018-07-22T04:46:10.754Z,80.35
2018-07-22T04:47:10.663Z,85.64
2018-07-22T04:48:10.810Z,83.33
2018-07-22T04:49:10.469Z,81.02
2018-07-22T04:50:10.379Z,83.81
2018-07-22T04:51:10.287Z,82.60
2018-07-22T04:52:10.185Z,79.23
2018-07-22T04:53:10.096Z,80.77
2018-07-22T04:54:10.004Z,82.41
2018-07-22T04:55:09.917Z,81.54
2018-07-22T04:56:09.816Z,85.00
2018-07-22T04:57:09.717Z,90.40
2018-07-22T04:58:09.627Z,84.47
2018-07-22T04:59:09.535Z,86.07
2018-07-22T05:00:09.446Z,81.39
2018-07-22T05:01:09.344Z,84.56
2018-07-22T05:02:09.252Z,87.46
2018-07-22T05:03:09.164Z,89.96
2018-07-22T05:04:09.073Z,90.54
2018-07-22T05:05:08.981Z,90.88
2018-07-22T05:06:08.877Z,89.43
2018-07-22T05:07:08.788Z,86.73
2018-07-22T05:08:08.997Z,83.36
2018-07-22T05:09:08.616Z,82.68
2018-07-22T05:10:08.513Z,81.72
2018-07-22T05:11:08.410Z,83.74
2018-07-22T05:12:08.318Z,83.64
2018-07-22T05:13:08.231Z,83.64
2018-07-22T05:14:08.138Z,82.49
2018-07-22T05:15:08.048Z,85.57
2018-07-22T05:16:07.956Z,88.60
2018-07-22T05:17:07.852Z,89.76
2018-07-22T05:18:07.761Z,91.20
2018-07-22T05:19:07.670Z,99.99
2018-07-22T05:20:07.579Z,99.79
2018-07-22T05:21:07.488Z,92.70
2018-07-22T05:22:07.386Z,99.99
2018-07-22T05:23:07.295Z,99.99
2018-07-22T05:24:07.204Z,99.99
2018-07-22T05:25:07.116Z,96.17
2018-07-22T05:26:07.023Z,98.63
2018-07-22T05:27:06.935Z,97.81
2018-07-22T05:28:06.842Z,97.96
2018-07-22T05:29:06.737Z,97.96
2018-07-22T05:30:06.646Z,98.05
2018-07-22T05:31:06.555Z,97.28
2018-07-22T05:32:06.465Z,98.34
2018-07-22T05:33:06.375Z,99.99
2018-07-22T05:34:06.285Z,99.31
2018-07-22T05:35:06.184Z,99.79
2018-07-22T05:36:06.136Z,99.99
2018-07-22T05:37:06.001Z,99.11
2018-07-22T05:38:05.913Z,99.74
2018-07-22T05:39:05.820Z,98.58
2018-07-22T05:40:05.727Z,99.84
2018-07-22T05:41:05.636Z,99.99
2018-07-22T05:42:05.568Z,99.94
2018-07-22T05:43:05.692Z,99.55
2018-07-22T05:44:05.352Z,99.84
2018-07-22T05:45:05.260Z,99.99
2018-07-22T05:46:05.172Z,99.79
2018-07-22T05:47:05.079Z,99.21
2018-07-22T05:48:04.991Z,99.11
2018-07-22T05:49:04.895Z,98.25
2018-07-22T05:50:04.806Z,98.30
2018-07-22T05:51:04.713Z,93.56
2018-07-22T05:52:04.626Z,86.21
2018-07-22T05:53:04.531Z,89.31
2018-07-22T05:54:04.509Z,89.35
2018-07-22T05:55:04.339Z,88.39
2018-07-22T05:56:04.250Z,90.56
2018-07-22T05:57:04.159Z,94.23
2018-07-22T05:58:04.067Z,92.30
2018-07-22T05:59:03.977Z,87.46
2018-07-22T06:00:03.886Z,86.20
2018-07-22T06:01:03.793Z,86.88
2018-07-22T06:02:03.702Z,79.24
2018-07-22T06:03:03.626Z,89.11
2018-07-22T06:04:03.520Z,90.60
2018-07-22T06:05:03.433Z,92.15
2018-07-22T06:06:03.343Z,86.73
2018-07-22T06:07:03.250Z,83.38
2018-07-22T06:08:03.160Z,81.05
2018-07-22T06:09:03.069Z,80.38
2018-07-22T06:10:02.991Z,79.60
2018-07-22T06:11:02.889Z,75.34
2018-07-22T06:12:02.841Z,71.60
2018-07-22T06:13:02.704Z,66.17
2018-07-22T06:14:02.612Z,66.17
2018-07-22T06:15:02.510Z,68.60
2018-07-22T06:16:02.431Z,67.24
2018-07-22T06:17:02.343Z,66.47
2018-07-22T06:18:02.255Z,66.75
2018-07-22T06:19:02.153Z,65.69
2018-07-22T06:20:02.070Z,62.20
2018-07-22T06:21:01.979Z,62.40
2018-07-22T06:22:01.886Z,63.75
2018-07-22T06:23:02.046Z,64.53
2018-07-22T06:24:01.706Z,66.17
2018-07-22T06:25:01.617Z,68.79
2018-07-22T06:26:01.525Z,68.24
2018-07-22T06:27:01.435Z,66.89
2018-07-22T06:28:01.343Z,69.50
2018-07-22T06:29:01.251Z,65.14
2018-07-22T06:30:01.161Z,66.20
2018-07-22T06:31:01.070Z,64.82
2018-07-22T06:32:00.978Z,63.46
2018-07-22T06:33:00.890Z,65.34
2018-07-22T06:34:00.799Z,65.11
2018-07-22T06:35:00.709Z,65.14
2018-07-22T06:36:00.617Z,64.56
2018-07-22T06:37:00.525Z,62.20
2018-07-22T06:38:00.684Z,61.94
2018-07-22T06:39:00.344Z,61.43
2018-07-22T06:40:00.251Z,60.58
2018-07-22T06:41:00.203Z,61.07
2018-07-22T06:42:00.070Z,61.17
2018-07-22T06:42:59.982Z,61.75
2018-07-22T06:43:59.888Z,61.46
2018-07-22T06:44:59.800Z,61.55
2018-07-22T06:45:59.722Z,62.13
2018-07-22T06:46:59.631Z,61.36
2018-07-22T06:47:59.540Z,62.26
2018-07-22T06:48:59.447Z,62.26
2018-07-22T06:49:59.357Z,61.71
2018-07-22T06:50:59.265Z,61.52
2018-07-22T06:51:59.176Z,61.81
2018-07-22T06:52:59.172Z,60.09
2018-07-22T06:53:59.084Z,61.07
2018-07-22T06:54:58.991Z,58.57
2018-07-22T06:55:58.902Z,57.40
2018-07-22T06:56:58.810Z,56.56
2018-07-22T06:57:58.728Z,56.85
2018-07-22T06:58:58.641Z,57.14
2018-07-22T06:59:58.538Z,57.04
2018-07-22T07:00:58.473Z,54.52
2018-07-22T07:01:58.366Z,53.57
2018-07-22T07:02:58.280Z,53.16
2018-07-22T07:03:58.184Z,53.67
2018-07-22T07:04:58.128Z,54.54
2018-07-22T07:05:58.005Z,52.98
2018-07-22T07:06:57.915Z,52.01
2018-07-22T07:07:58.124Z,50.65
2018-07-22T07:08:57.744Z,50.46
2018-07-22T07:09:57.653Z,50.26
2018-07-22T07:10:57.597Z,50.34
2018-07-22T07:11:57.472Z,49.78
2018-07-22T07:12:57.380Z,49.49
2018-07-22T07:13:57.303Z,50.58
2018-07-22T07:14:57.211Z,49.90
2018-07-22T07:15:57.119Z,49.73
2018-07-22T07:16:57.034Z,48.17
2018-07-22T07:17:57.190Z,46.51
2018-07-22T07:18:56.850Z,46.42
2018-07-22T07:19:56.772Z,46.59
2018-07-22T07:20:56.773Z,46.88
2018-07-22T07:21:56.589Z,47.08
2018-07-22T07:22:56.497Z,47.08
2018-07-22T07:23:56.422Z,46.23
2018-07-22T07:24:56.330Z,46.81
2018-07-22T07:25:56.239Z,47.00
2018-07-22T07:26:56.149Z,48.68
2018-07-22T07:27:56.057Z,50.04
2018-07-22T07:28:55.980Z,47.83
2018-07-22T07:29:55.888Z,46.37
2018-07-22T07:30:55.797Z,45.98
2018-07-22T07:31:55.708Z,44.56
2018-07-22T07:32:55.627Z,43.47
2018-07-22T07:33:55.536Z,43.88
2018-07-22T07:34:55.445Z,42.73
2018-07-22T07:35:55.354Z,41.77
2018-07-22T07:36:55.277Z,41.97
2018-07-22T07:37:55.188Z,43.04
2018-07-22T07:38:55.098Z,41.75
2018-07-22T07:39:55.018Z,42.94
2018-07-22T07:40:54.926Z,44.04
2018-07-22T07:41:54.834Z,41.60
2018-07-22T07:42:54.756Z,41.21
2018-07-22T07:43:54.666Z,41.19
2018-07-22T07:44:54.574Z,41.97
2018-07-22T07:45:54.495Z,42.05
2018-07-22T07:46:54.413Z,42.14
2018-07-22T07:47:54.326Z,41.93
2018-07-22T07:48:54.237Z,42.02
2018-07-22T07:49:54.147Z,42.32
2018-07-22T07:50:54.057Z,42.69
2018-07-22T07:51:53.979Z,42.88
2018-07-22T07:52:53.886Z,42.59
2018-07-22T07:53:53.795Z,42.49
2018-07-22T07:54:53.716Z,43.05
2018-07-22T07:55:53.626Z,43.85
2018-07-22T07:56:53.538Z,42.30
2018-07-22T07:57:53.460Z,42.51
2018-07-22T07:58:53.368Z,41.83
2018-07-22T07:59:53.288Z,42.54
2018-07-22T08:00:53.197Z,42.83
2018-07-22T08:01:53.108Z,42.36
2018-07-22T08:02:53.029Z,42.68
2018-07-22T08:03:52.944Z,41.21
2018-07-22T08:04:52.846Z,40.11
2018-07-22T08:05:52.769Z,39.55
2018-07-22T08:06:52.690Z,38.18
2018-07-22T08:07:52.597Z,38.63
2018-07-22T08:08:52.509Z,38.96
2018-07-22T08:09:52.440Z,38.61
2018-07-22T08:10:52.340Z,35.09
2018-07-22T08:11:52.250Z,34.91
2018-07-22T08:12:52.169Z,34.05
2018-07-22T08:13:52.080Z,33.34
2018-07-22T08:14:51.987Z,33.51
2018-07-22T08:15:51.909Z,33.89
2018-07-22T08:16:51.817Z,35.17
2018-07-22T08:17:51.739Z,34.99
2018-07-22T08:18:51.649Z,35.11
2018-07-22T08:19:51.557Z,35.13
2018-07-22T08:20:51.481Z,33.46
2018-07-22T08:21:51.537Z,33.56
2018-07-22T08:22:51.302Z,33.36
2018-07-22T08:23:51.221Z,34.14
2018-07-22T08:24:51.129Z,34.44
2018-07-22T08:25:51.053Z,32.19
2018-07-22T08:26:50.962Z,32.26
2018-07-22T08:27:50.894Z,32.75
2018-07-22T08:28:50.793Z,33.51
2018-07-22T08:29:50.703Z,33.33
2018-07-22T08:30:50.624Z,33.92
2018-07-22T08:31:50.533Z,34.60
2018-07-22T08:32:50.452Z,35.19
2018-07-22T08:33:50.361Z,35.36
2018-07-22T08:34:50.272Z,35.58
2018-07-22T08:35:50.193Z,35.40
2018-07-22T08:36:50.106Z,36.20
2018-07-22T08:37:50.275Z,36.12
2018-07-22T08:38:49.936Z,33.98
2018-07-22T08:39:49.856Z,33.80
2018-07-22T08:40:49.764Z,32.64
2018-07-22T08:41:49.685Z,32.84
2018-07-22T08:42:49.595Z,32.46
2018-07-22T08:43:49.504Z,32.38
2018-07-22T08:44:49.427Z,32.56
2018-07-22T08:45:49.337Z,34.11
2018-07-22T08:46:49.259Z,33.58
2018-07-22T08:47:49.168Z,34.89
2018-07-22T08:48:49.092Z,33.75
2018-07-22T08:49:48.999Z,33.67
2018-07-22T08:50:48.921Z,34.57
2018-07-22T08:51:48.829Z,34.01
2018-07-22T08:52:48.748Z,35.92
2018-07-22T08:53:48.660Z,36.43
2018-07-22T08:54:48.580Z,36.85
2018-07-22T08:55:48.490Z,35.69
2018-07-22T08:56:48.412Z,35.32
2018-07-22T08:57:48.324Z,35.06
2018-07-22T08:58:48.244Z,33.98
2018-07-22T08:59:48.153Z,33.77
2018-07-22T09:00:48.072Z,33.53
2018-07-22T09:01:47.982Z,32.40
2018-07-22T09:02:47.905Z,31.63
2018-07-22T09:03:47.826Z,30.27
2018-07-22T09:04:47.734Z,30.28
2018-07-22T09:05:47.657Z,29.69
2018-07-22T09:06:47.566Z,30.27
2018-07-22T09:07:47.490Z,30.28
2018-07-22T09:08:47.411Z,30.97
2018-07-22T09:09:47.320Z,30.31
2018-07-22T09:10:47.241Z,29.93
2018-07-22T09:11:47.189Z,29.06
2018-07-22T09:12:47.083Z,29.75
2018-07-22T09:13:46.992Z,29.17
2018-07-22T09:14:46.915Z,27.59
2018-07-22T09:15:46.836Z,28.17
2018-07-22T09:16:46.747Z,28.05
2018-07-22T09:17:46.989Z,28.70
2018-07-22T09:18:46.593Z,29.57
2018-07-22T09:19:46.512Z,29.77
2018-07-22T09:20:46.433Z,29.97
2018-07-22T09:21:46.343Z,29.17
2018-07-22T09:22:46.266Z,29.66
2018-07-22T09:23:46.187Z,29.87
2018-07-22T09:24:46.106Z,29.49
2018-07-22T09:25:46.017Z,29.30
2018-07-22T09:26:45.936Z,29.39
2018-07-22T09:27:45.875Z,29.43
2018-07-22T09:28:45.782Z,29.39
2018-07-22T09:29:45.704Z,29.80
2018-07-22T09:30:45.613Z,29.72
2018-07-22T09:31:45.537Z,29.90
2018-07-22T09:32:45.455Z,29.61
2018-07-22T09:33:45.376Z,31.05
2018-07-22T09:34:45.298Z,31.84
2018-07-22T09:35:45.234Z,31.84
2018-07-22T09:36:45.129Z,31.40
2018-07-22T09:37:45.051Z,32.48
2018-07-22T09:38:44.971Z,32.43
2018-07-22T09:39:44.906Z,33.39
2018-07-22T09:40:44.817Z,33.61
2018-07-22T09:41:44.790Z,33.20
2018-07-22T09:42:44.650Z,33.87
2018-07-22T09:43:44.570Z,33.79
2018-07-22T09:44:44.490Z,34.20
2018-07-22T09:45:44.411Z,33.02
2018-07-22T09:46:44.320Z,33.92
2018-07-22T09:47:44.244Z,33.77
2018-07-22T09:48:44.165Z,34.05
2018-07-22T09:49:44.087Z,35.68
2018-07-22T09:50:44.000Z,36.24
2018-07-22T09:51:43.919Z,37.50
2018-07-22T09:52:43.841Z,37.79
2018-07-22T09:53:43.809Z,37.60
2018-07-22T09:54:43.671Z,36.90
2018-07-22T09:55:43.595Z,37.02
2018-07-22T09:56:43.511Z,36.93
2018-07-22T09:57:43.422Z,36.85
2018-07-22T09:58:43.343Z,36.65
2018-07-22T09:59:43.265Z,36.08
2018-07-22T10:00:43.177Z,35.42
2018-07-22T10:01:43.097Z,34.55
2018-07-22T10:02:43.019Z,33.74
2018-07-22T10:03:42.941Z,33.95
2018-07-22T10:04:42.892Z,33.75
2018-07-22T10:05:42.771Z,33.59
2018-07-22T10:06:42.692Z,34.69
2018-07-22T10:07:42.613Z,34.62
2018-07-22T10:08:42.522Z,34.05
2018-07-22T10:09:42.444Z,32.50
2018-07-22T10:10:42.365Z,32.33
2018-07-22T10:11:42.287Z,31.94
2018-07-22T10:12:42.199Z,31.85
2018-07-22T10:13:42.122Z,32.34
2018-07-22T10:14:42.115Z,30.19
2018-07-22T10:15:41.964Z,29.90
2018-07-22T10:16:41.871Z,28.74
2018-07-22T10:17:42.118Z,28.45
2018-07-22T10:18:41.714Z,28.37
2018-07-22T10:19:41.649Z,29.75
2018-07-22T10:20:41.559Z,28.96
2018-07-22T10:21:41.469Z,28.96
2018-07-22T10:22:41.391Z,28.66
2018-07-22T10:23:41.315Z,29.52
2018-07-22T10:24:41.235Z,29.44
2018-07-22T10:25:41.155Z,29.05
2018-07-22T10:26:41.064Z,29.52
2018-07-22T10:27:40.988Z,30.30
2018-07-22T10:28:40.954Z,30.49
2018-07-22T10:29:40.827Z,30.08
2018-07-22T10:30:40.749Z,30.85
2018-07-22T10:31:40.659Z,32.61
2018-07-22T10:32:40.582Z,32.41
2018-07-22T10:33:40.504Z,32.95
2018-07-22T10:34:40.429Z,33.43
2018-07-22T10:35:40.336Z,35.16
2018-07-22T10:36:40.254Z,36.32
2018-07-22T10:37:40.175Z,35.32
2018-07-22T10:38:40.098Z,36.38
2018-07-22T10:39:40.019Z,36.77
2018-07-22T10:40:39.943Z,37.37
2018-07-22T10:41:39.852Z,36.98
2018-07-22T10:42:39.775Z,36.20
2018-07-22T10:43:39.698Z,35.52
2018-07-22T10:44:39.602Z,36.10
2018-07-22T10:45:39.538Z,38.26
2018-07-22T10:46:39.449Z,37.57
2018-07-22T10:47:39.364Z,38.55
2018-07-22T10:48:39.279Z,37.18
2018-07-22T10:49:39.201Z,38.04
2018-07-22T10:50:39.122Z,38.94
2018-07-22T10:51:39.031Z,38.84
2018-07-22T10:52:38.951Z,39.22
2018-07-22T10:53:38.872Z,39.04
2018-07-22T10:54:38.783Z,38.35
2018-07-22T10:55:38.719Z,40.01
2018-07-22T10:56:38.626Z,39.43
2018-07-22T10:57:38.534Z,38.26
2018-07-22T10:58:38.464Z,38.92
2018-07-22T10:59:38.378Z,39.12
2018-07-22T11:00:38.290Z,40.21
2018-07-22T11:01:38.212Z,38.61
2018-07-22T11:02:38.127Z,38.43
2018-07-22T11:03:38.042Z,38.81
2018-07-22T11:04:37.961Z,39.98
2018-07-22T11:05:37.871Z,40.86
2018-07-22T11:06:37.793Z,39.86
2018-07-22T11:07:37.705Z,39.86
2018-07-22T11:08:37.625Z,39.29
2018-07-22T11:09:37.547Z,39.78
2018-07-22T11:10:37.457Z,40.78
2018-07-22T11:11:37.378Z,40.11
2018-07-22T11:12:37.291Z,39.78
2018-07-22T11:13:37.208Z,39.69
2018-07-22T11:14:37.168Z,40.00
2018-07-22T11:15:37.040Z,39.31
2018-07-22T11:16:36.960Z,39.92
2018-07-22T11:17:37.181Z,38.84
2018-07-22T11:18:36.789Z,38.26
2018-07-22T11:19:36.711Z,38.24
2018-07-22T11:20:36.623Z,39.00
2018-07-22T11:21:36.546Z,40.08
2018-07-22T11:22:36.454Z,40.08
2018-07-22T11:23:36.378Z,41.54
2018-07-22T11:24:36.295Z,39.98
2018-07-22T11:25:36.204Z,38.89
2018-07-22T11:26:36.127Z,39.76
2018-07-22T11:27:36.039Z,40.55
2018-07-22T11:28:35.960Z,41.54
2018-07-22T11:29:35.879Z,39.69
2018-07-22T11:30:35.789Z,40.08
2018-07-22T11:31:35.720Z,40.19
2018-07-22T11:32:35.621Z,39.90
2018-07-22T11:33:35.542Z,40.17
2018-07-22T11:34:35.464Z,39.98
2018-07-22T11:35:35.374Z,40.66
2018-07-22T11:36:35.293Z,39.88
2018-07-22T11:37:35.203Z,39.28
2018-07-22T11:38:35.136Z,40.63
2018-07-22T11:39:35.033Z,40.97
2018-07-22T11:40:34.960Z,40.78
2018-07-22T11:41:34.868Z,42.41
2018-07-22T11:42:34.787Z,42.83
2018-07-22T11:43:34.698Z,42.34
2018-07-22T11:44:34.619Z,42.44
2018-07-22T11:45:34.540Z,42.54
2018-07-22T11:46:34.448Z,42.16
2018-07-22T11:47:34.385Z,41.77
2018-07-22T11:48:34.278Z,40.11
2018-07-22T11:49:34.201Z,40.60
2018-07-22T11:50:34.159Z,41.19
2018-07-22T11:51:34.030Z,41.19
2018-07-22T11:52:33.942Z,40.68
2018-07-22T11:53:33.864Z,41.07
2018-07-22T11:54:33.774Z,41.75
2018-07-22T11:55:33.693Z,42.10
2018-07-22T11:56:33.604Z,43.57
2018-07-22T11:57:33.511Z,42.79
2018-07-22T11:58:33.433Z,43.66
2018-07-22T11:59:33.342Z,42.88
2018-07-22T12:00:33.263Z,42.79
2018-07-22T12:01:33.194Z,42.86
2018-07-22T12:02:33.093Z,43.57
2018-07-22T12:03:33.004Z,43.95
2018-07-22T12:04:32.929Z,43.76
2018-07-22T12:05:32.836Z,43.78
2018-07-22T12:06:32.746Z,43.00
2018-07-22T12:07:32.674Z,43.22
2018-07-22T12:08:32.574Z,43.02
2018-07-22T12:09:32.496Z,42.36
2018-07-22T12:10:32.406Z,42.46
2018-07-22T12:11:32.328Z,42.46
2018-07-22T12:12:32.261Z,42.75
2018-07-22T12:13:32.148Z,41.38
2018-07-22T12:14:32.072Z,41.36
2018-07-22T12:15:31.979Z,42.26
2018-07-22T12:16:31.899Z,43.07
2018-07-22T12:17:32.062Z,42.48
2018-07-22T12:18:31.731Z,42.87
2018-07-22T12:19:31.639Z,42.69
2018-07-22T12:20:31.546Z,42.79
2018-07-22T12:21:31.475Z,40.16
2018-07-22T12:22:31.377Z,40.84
2018-07-22T12:23:31.299Z,41.15
2018-07-22T12:24:31.211Z,42.42
2018-07-22T12:25:31.132Z,41.64
2018-07-22T12:26:31.041Z,41.35
2018-07-22T12:27:30.953Z,41.52
2018-07-22T12:28:30.871Z,41.41
2018-07-22T12:29:30.779Z,41.82
2018-07-22T12:30:30.700Z,41.99
2018-07-22T12:31:30.612Z,42.09
2018-07-22T12:32:30.524Z,42.09
2018-07-22T12:33:30.441Z,42.11
2018-07-22T12:34:30.367Z,41.41
2018-07-22T12:35:30.272Z,40.74
2018-07-22T12:36:30.183Z,41.23
2018-07-22T12:37:30.106Z,40.64
2018-07-22T12:38:30.028Z,41.03
2018-07-22T12:39:29.936Z,41.82
2018-07-22T12:40:29.887Z,41.74
2018-07-22T12:41:29.764Z,41.15
2018-07-22T12:42:29.674Z,41.15
2018-07-22T12:43:29.583Z,40.56
2018-07-22T12:44:29.520Z,39.98
2018-07-22T12:45:29.416Z,40.76
2018-07-22T12:46:29.341Z,41.05
2018-07-22T12:47:29.261Z,40.72
2018-07-22T12:48:29.166Z,41.50
2018-07-22T12:49:29.076Z,41.11
2018-07-22T12:50:28.989Z,41.31
2018-07-22T12:51:28.906Z,40.89